Time;durP1;ratioP1;P1;durP2;ratioP2;P2;SDS_P1;SDS_P2;PMS_P1;PMS_P2;Temp;Humidity;BMP_temperature;BMP_pressure;BME280_temperature;BME280_humidity;BME280_pressure;Samples;Min_cycle;Max_cycle;Signal;HPM_P1;HPM_P2
2022/10/29 00:02:12;;;;;;;9.40;3.20;;;;;;;12.91;100.00;97511.38;5081121;28;20285;-60
2022/10/29 00:04:39;;;;;;;8.77;3.30;;;;;;;12.91;100.00;97511.38;5081173;28;20233;-60
2022/10/29 00:07:06;;;;;;;7.90;3.27;;;;;;;12.92;100.00;97519.22;5081247;28;20233;-60
2022/10/29 00:09:32;;;;;;;8.17;3.87;;;;;;;12.93;100.00;97512.91;5080948;28;20205;-60
2022/10/29 00:12:00;;;;;;;9.27;3.70;;;;;;;12.96;100.00;97510.00;5080933;28;20230;-59
2022/10/29 00:14:27;;;;;;;9.00;3.57;;;;;;;12.99;100.00;97500.94;5083298;28;20210;-61
2022/10/29 00:16:55;;;;;;;10.93;3.77;;;;;;;13.03;100.00;97496.19;5085082;28;20404;-60
2022/10/29 00:19:22;;;;;;;5.63;3.70;;;;;;;13.03;100.00;97506.81;5084735;28;20224;-59
2022/10/29 00:21:50;;;;;;;14.60;4.33;;;;;;;13.04;100.00;97503.19;5085166;28;20293;-60
2022/10/29 00:24:16;;;;;;;8.90;3.70;;;;;;;13.06;100.00;97501.22;5093602;28;20667;-60
2022/10/29 00:26:43;;;;;;;5.37;3.43;;;;;;;13.11;100.00;97502.50;5107367;28;20197;-60
2022/10/29 00:29:11;;;;;;;6.77;3.70;;;;;;;13.12;100.00;97495.38;5107583;28;20205;-60
2022/10/29 00:31:38;;;;;;;8.73;3.80;;;;;;;13.12;100.00;97493.56;5110459;28;20202;-61
2022/10/29 00:34:04;;;;;;;6.50;3.60;;;;;;;13.17;100.00;97498.47;5088102;28;20253;-60
2022/10/29 00:36:31;;;;;;;8.60;3.97;;;;;;;13.15;100.00;97495.09;5101812;28;20198;-60
2022/10/29 00:38:57;;;;;;;9.70;3.70;;;;;;;13.14;100.00;97504.06;5104438;28;20225;-60
2022/10/29 00:41:26;;;;;;;8.37;3.93;;;;;;;13.12;100.00;97509.50;5086360;28;20273;-61
2022/10/29 00:44:24;;;;;;;6.23;3.27;;;;;;;13.07;100.00;97513.53;5085380;28;20285;-61
2022/10/29 00:46:52;;;;;;;10.90;4.33;;;;;;;13.07;100.00;97513.53;5091520;28;20639;-60
2022/10/29 00:49:20;;;;;;;9.93;4.00;;;;;;;13.05;100.00;97504.84;5092713;28;20229;-60
2022/10/29 00:51:46;;;;;;;8.23;4.40;;;;;;;13.07;100.00;97502.91;5090566;28;20920;-60
2022/10/29 00:54:15;;;;;;;8.57;4.10;;;;;;;13.08;100.00;97492.13;5093352;28;20262;-60
2022/10/29 00:56:44;;;;;;;6.20;3.60;;;;;;;13.08;100.00;97499.25;5101377;28;20229;-60
2022/10/29 00:59:11;;;;;;;10.73;3.87;;;;;;;13.06;100.00;97502.06;5093864;28;20218;-60
2022/10/29 01:01:39;;;;;;;7.93;3.83;;;;;;;13.06;100.00;97506.53;5093358;28;20206;-60
2022/10/29 01:04:06;;;;;;;5.87;3.83;;;;;;;12.98;100.00;97502.75;5088890;28;20216;-59
2022/10/29 01:06:33;;;;;;;11.03;3.97;;;;;;;12.96;100.00;97499.41;5088720;28;20241;-59
2022/10/29 01:09:00;;;;;;;8.17;4.63;;;;;;;12.97;100.00;97497.56;5086880;28;20225;-60
2022/10/29 01:11:34;;;;;;;5.93;3.67;;;;;;;12.98;100.00;97505.41;5084804;28;20710;-60
2022/10/29 01:14:06;;;;;;;9.67;4.00;;;;;;;12.94;100.00;97501.31;5084615;28;20217;-60
2022/10/29 01:16:40;;;;;;;7.33;4.00;;;;;;;12.95;100.00;97510.97;5084544;28;20678;-60
2022/10/29 01:19:13;;;;;;;8.90;4.60;;;;;;;12.93;100.00;97507.59;5086148;28;20301;-60
2022/10/29 01:21:42;;;;;;;9.57;3.87;;;;;;;12.91;100.00;97498.94;5084394;28;20214;-59
2022/10/29 01:24:47;;;;;;;6.60;4.07;;;;;;;12.91;100.00;97503.41;5083473;28;20277;-59
2022/10/29 01:27:40;;;;;;;6.87;4.20;;;;;;;12.95;100.00;97497.72;5083112;28;20281;-61
2022/10/29 01:30:12;;;;;;;5.23;3.73;;;;;;;12.95;100.00;97495.06;5083260;28;20245;-60
2022/10/29 01:32:47;;;;;;;8.73;4.40;;;;;;;12.98;100.00;97494.78;5083272;28;20285;-59
2022/10/29 01:35:18;;;;;;;9.97;4.20;;;;;;;12.95;100.00;97486.25;5083872;28;20202;-60
2022/10/29 01:37:52;;;;;;;10.90;3.87;;;;;;;12.95;100.00;97483.59;5083174;28;20229;-60
2022/10/29 01:40:24;;;;;;;7.87;3.60;;;;;;;12.97;100.00;97478.97;5083964;28;20221;-59
2022/10/29 01:42:53;;;;;;;7.53;3.67;;;;;;;12.97;100.00;97471.00;5082973;28;20186;-61
2022/10/29 01:45:23;;;;;;;4.93;3.60;;;;;;;13.01;100.00;97475.06;5083707;28;20285;-60
2022/10/29 01:47:55;;;;;;;9.30;3.77;;;;;;;13.01;100.00;97476.88;5084355;28;20271;-60
2022/10/29 01:50:23;;;;;;;5.83;3.43;;;;;;;12.98;100.00;97478.84;5083326;28;20250;-60
2022/10/29 01:52:50;;;;;;;8.07;4.00;;;;;;;12.96;100.00;97474.66;5083552;28;20226;-59
2022/10/29 01:55:19;;;;;;;12.33;3.80;;;;;;;13.00;100.00;97477.88;5083676;28;20673;-60
2022/10/29 01:57:46;;;;;;;4.70;3.33;;;;;;;12.97;100.00;97471.84;5082931;28;20298;-60
2022/10/29 02:00:16;;;;;;;11.03;3.93;;;;;;;12.98;100.00;97468.22;5084245;28;20727;-59
2022/10/29 02:02:52;;;;;;;8.87;3.70;;;;;;;12.95;100.00;97457.88;5084484;28;20206;-60
2022/10/29 02:05:26;;;;;;;9.10;3.93;;;;;;;12.95;100.00;97460.53;5082846;28;20277;-60
2022/10/29 02:07:54;;;;;;;6.10;3.57;;;;;;;12.93;100.00;97470.44;5082814;28;20201;-60
2022/10/29 02:10:27;;;;;;;6.83;3.20;;;;;;;12.93;100.00;97474.94;5083802;28;20204;-59
2022/10/29 02:12:55;;;;;;;8.37;3.60;;;;;;;12.93;100.00;97467.78;5083194;28;20229;-59
2022/10/29 02:15:25;;;;;;;10.90;4.20;;;;;;;12.90;100.00;97464.56;5082812;28;20216;-59
2022/10/29 02:17:53;;;;;;;10.87;3.83;;;;;;;12.84;100.00;97459.81;5084595;28;20254;-60
2022/10/29 02:20:20;;;;;;;11.03;3.60;;;;;;;12.77;100.00;97459.53;5085736;28;20226;-60
2022/10/29 02:22:46;;;;;;;7.27;3.77;;;;;;;12.76;100.00;97457.84;5084744;28;20653;-60
2022/10/29 02:25:14;;;;;;;15.00;4.23;;;;;;;12.73;100.00;97455.47;5085291;28;20282;-60
2022/10/29 02:27:40;;;;;;;8.07;3.33;;;;;;;12.75;100.00;97456.16;5105194;28;20197;-60
2022/10/29 02:30:08;;;;;;;6.27;3.47;;;;;;;12.67;100.00;97457.81;5102342;28;20194;-60
2022/10/29 02:32:35;;;;;;;10.00;3.77;;;;;;;12.58;100.00;97454.16;5082618;28;20197;-61
2022/10/29 02:35:03;;;;;;;7.53;4.00;;;;;;;12.60;100.00;97452.22;5105109;28;20202;-60
2022/10/29 02:37:30;;;;;;;5.53;3.33;;;;;;;12.56;100.00;97450.81;5103377;28;20183;-60
2022/10/29 02:39:57;;;;;;;6.70;3.70;;;;;;;12.48;100.00;97454.13;5095536;28;20217;-61
2022/10/29 02:42:24;;;;;;;5.50;3.17;;;;;;;12.43;100.00;97450.22;5082008;28;20237;-59
2022/10/29 02:44:50;;;;;;;7.50;3.63;;;;;;;12.40;100.00;97458.41;5082201;28;20286;-60
2022/10/29 02:47:17;;;;;;;9.00;3.17;;;;;;;12.42;100.00;97456.50;5082039;28;20285;-60
2022/10/29 02:49:44;;;;;;;10.37;3.47;;;;;;;12.38;100.00;97450.63;5081996;28;20298;-60
2022/10/29 02:52:14;;;;;;;8.43;3.50;;;;;;;12.32;100.00;97447.66;5081713;28;20202;-60
2022/10/29 02:54:41;;;;;;;8.60;3.43;;;;;;;12.21;100.00;97448.59;5082252;28;20194;-59
2022/10/29 02:57:08;;;;;;;12.63;3.63;;;;;;;12.21;100.00;97447.75;5081906;28;20238;-60
2022/10/29 02:59:35;;;;;;;6.33;3.30;;;;;;;12.21;100.00;97447.75;5082222;28;20227;-60
2022/10/29 03:02:01;;;;;;;8.00;3.23;;;;;;;12.17;100.00;97449.00;5081555;28;20301;-59
2022/10/29 03:04:28;;;;;;;8.77;3.90;;;;;;;12.17;100.00;97443.69;5081732;28;20230;-60
2022/10/29 03:06:54;;;;;;;7.20;3.57;;;;;;;12.15;100.00;97429.75;5081288;28;20686;-60
2022/10/29 03:09:22;;;;;;;12.73;4.17;;;;;;;12.03;100.00;97431.63;5081514;28;20570;-61
2022/10/29 03:11:50;;;;;;;8.57;3.90;;;;;;;12.07;100.00;97429.56;5081245;28;20281;-60
2022/10/29 03:14:16;;;;;;;8.70;3.57;;;;;;;11.97;100.00;97430.34;5082010;28;20318;-61
2022/10/29 03:16:43;;;;;;;6.87;3.80;;;;;;;12.00;100.00;97431.06;5081629;28;20205;-60
2022/10/29 03:19:10;;;;;;;8.83;3.70;;;;;;;11.98;100.00;97432.03;5081375;28;20599;-60
2022/10/29 03:21:36;;;;;;;9.23;3.73;;;;;;;11.96;100.00;97431.34;5063154;28;20228;-60
2022/10/29 03:24:04;;;;;;;9.07;3.77;;;;;;;11.96;100.00;97430.50;5081795;28;20206;-60
2022/10/29 03:26:32;;;;;;;9.20;3.80;;;;;;;11.93;100.00;97430.75;5081197;28;20410;-59
2022/10/29 03:28:58;;;;;;;10.97;3.60;;;;;;;11.87;100.00;97440.06;5081561;28;20325;-61
2022/10/29 03:31:25;;;;;;;6.77;3.37;;;;;;;11.90;100.00;97437.13;5080868;28;20635;-61
2022/10/29 03:33:52;;;;;;;7.97;3.73;;;;;;;11.89;100.00;97430.19;5081400;28;20292;-61
2022/10/29 03:36:18;;;;;;;4.33;3.40;;;;;;;11.86;100.00;97435.75;5080783;28;20205;-60
2022/10/29 03:38:45;;;;;;;9.43;3.47;;;;;;;11.89;100.00;97434.63;5081489;28;20309;-61
2022/10/29 03:41:11;;;;;;;9.70;3.77;;;;;;;11.84;100.00;97440.31;5081404;28;20230;-60
2022/10/29 03:43:39;;;;;;;9.83;3.80;;;;;;;11.80;100.00;97441.56;5080672;28;20230;-60
2022/10/29 03:46:06;;;;;;;7.97;3.80;;;;;;;11.80;100.00;97443.34;5081549;28;20296;-60
2022/10/29 03:48:33;;;;;;;6.87;3.50;;;;;;;11.77;100.00;97436.53;5080875;28;20198;-60
2022/10/29 03:51:01;;;;;;;8.17;3.43;;;;;;;11.78;100.00;97437.38;5080641;28;20332;-60
2022/10/29 03:53:28;;;;;;;11.57;4.27;;;;;;;11.80;100.00;97430.09;5081236;28;20195;-60
2022/10/29 03:55:56;;;;;;;7.47;4.10;;;;;;;11.75;100.00;97432.34;5080690;28;20625;-60
2022/10/29 03:58:23;;;;;;;7.30;4.23;;;;;;;11.74;100.00;97431.47;5080875;28;20285;-60
2022/10/29 04:00:58;;;;;;;8.10;3.80;;;;;;;11.73;100.00;97435.09;5081178;28;20288;-60
2022/10/29 04:03:26;;;;;;;9.90;4.20;;;;;;;11.74;100.00;97431.47;5080576;28;20690;-61
2022/10/29 04:05:52;;;;;;;11.93;4.10;;;;;;;11.70;100.00;97429.19;5080723;28;20431;-60
2022/10/29 04:08:19;;;;;;;9.03;4.10;;;;;;;11.65;100.00;97426.94;5080676;28;20226;-59
2022/10/29 04:10:46;;;;;;;9.60;3.83;;;;;;;11.65;100.00;97426.94;5081120;28;20603;-60
2022/10/29 04:13:13;;;;;;;9.90;3.43;;;;;;;11.63;100.00;97425.38;5080649;28;21420;-61
2022/10/29 04:15:40;;;;;;;9.03;3.50;;;;;;;11.66;100.00;97438.38;5080594;28;20682;-59
2022/10/29 04:18:08;;;;;;;9.03;3.53;;;;;;;11.68;100.00;97434.63;5080632;28;20202;-60
2022/10/29 04:20:35;;;;;;;11.07;3.70;;;;;;;11.65;100.00;97437.56;5080780;28;20230;-61
2022/10/29 04:23:01;;;;;;;11.60;3.47;;;;;;;11.66;100.00;97433.91;5080745;28;20224;-60
2022/10/29 04:25:28;;;;;;;8.13;3.20;;;;;;;11.62;100.00;97436.97;5080039;28;20296;-61
2022/10/29 04:27:55;;;;;;;11.43;3.73;;;;;;;11.59;100.00;97430.09;5080958;28;20304;-60
2022/10/29 04:30:22;;;;;;;9.87;3.47;;;;;;;11.58;100.00;97431.09;5081052;28;20274;-60
2022/10/29 04:32:48;;;;;;;9.93;3.87;;;;;;;11.52;100.00;97425.44;5081721;28;20194;-60
2022/10/29 04:35:17;;;;;;;7.10;3.57;;;;;;;11.48;100.00;97419.56;5081071;28;20229;-61
2022/10/29 04:37:43;;;;;;;4.60;3.50;;;;;;;11.49;100.00;97432.69;5080843;28;20221;-60
2022/10/29 04:40:10;;;;;;;10.00;3.80;;;;;;;11.48;100.00;97430.16;5081096;28;20222;-59
2022/10/29 04:42:37;;;;;;;9.83;3.70;;;;;;;11.47;100.00;97434.66;5080188;28;20238;-60
2022/10/29 04:45:05;;;;;;;9.37;3.67;;;;;;;11.48;100.00;97440.75;5080262;28;20305;-60
2022/10/29 04:47:31;;;;;;;6.03;3.77;;;;;;;11.47;100.00;97428.50;5079871;28;20242;-60
2022/10/29 04:49:58;;;;;;;10.70;3.30;;;;;;;11.46;100.00;97437.41;5080503;28;20493;-59
2022/10/29 04:52:26;;;;;;;5.50;3.40;;;;;;;11.40;100.00;97437.94;5080220;28;20281;-61
2022/10/29 04:54:53;;;;;;;6.27;3.50;;;;;;;11.43;100.00;97441.16;5080164;28;20292;-60
2022/10/29 04:57:19;;;;;;;10.53;3.73;;;;;;;11.44;100.00;97439.38;5080625;28;20234;-60
2022/10/29 04:59:46;;;;;;;13.50;3.47;;;;;;;11.40;100.00;97437.94;5081843;28;20265;-60
2022/10/29 05:02:13;;;;;;;8.27;3.30;;;;;;;11.36;100.00;97436.50;5084271;28;20281;-60
2022/10/29 05:04:39;;;;;;;9.70;3.37;;;;;;;11.34;100.00;97435.78;5083716;28;20277;-60
2022/10/29 05:07:06;;;;;;;9.47;3.33;;;;;;;11.33;100.00;97432.31;5083905;28;20206;-60
2022/10/29 05:09:34;;;;;;;8.07;3.37;;;;;;;11.30;100.00;97431.72;5083552;28;20213;-60
2022/10/29 05:12:00;;;;;;;8.40;3.90;;;;;;;11.27;100.00;97431.97;5083580;28;20297;-61
2022/10/29 05:14:27;;;;;;;8.97;3.60;;;;;;;11.27;100.00;97429.31;5083527;28;20297;-59
2022/10/29 05:16:53;;;;;;;6.83;3.50;;;;;;;11.23;100.00;97425.28;5084089;28;20216;-60
2022/10/29 05:19:20;;;;;;;7.03;3.40;;;;;;;11.18;100.00;97424.81;5083055;28;20669;-60
2022/10/29 05:21:47;;;;;;;5.30;3.50;;;;;;;11.12;100.00;97420.88;5083298;28;20276;-60
2022/10/29 05:24:13;;;;;;;7.27;3.70;;;;;;;11.11;100.00;97427.13;5083541;28;20226;-60
2022/10/29 05:26:42;;;;;;;8.30;3.40;;;;;;;11.10;100.00;97425.44;5083162;28;20255;-60
2022/10/29 05:29:09;;;;;;;10.17;3.40;;;;;;;11.13;100.00;97419.88;5083003;28;20237;-60
2022/10/29 05:31:35;;;;;;;5.73;3.20;;;;;;;11.14;100.00;97423.38;5083533;28;20289;-60
2022/10/29 05:34:02;;;;;;;9.57;3.60;;;;;;;11.13;100.00;97426.97;5083498;28;20653;-60
2022/10/29 05:36:29;;;;;;;5.27;3.23;;;;;;;11.12;100.00;97426.16;5083738;28;20267;-60
2022/10/29 05:38:55;;;;;;;7.27;3.53;;;;;;;11.13;100.00;97427.81;5082673;28;20292;-59
2022/10/29 05:41:22;;;;;;;7.37;3.60;;;;;;;11.11;100.00;97421.00;5082987;28;20244;-60
2022/10/29 05:43:50;;;;;;;8.97;3.40;;;;;;;11.11;100.00;97427.13;5082622;28;20672;-60
2022/10/29 05:46:17;;;;;;;6.10;3.30;;;;;;;11.08;100.00;97426.53;5083378;28;20278;-60
2022/10/29 05:48:43;;;;;;;9.27;3.73;;;;;;;11.05;100.00;97416.22;5083239;28;20289;-59
2022/10/29 05:51:10;;;;;;;8.30;3.33;;;;;;;11.10;100.00;97424.59;5082740;28;20257;-60
2022/10/29 05:53:37;;;;;;;5.40;3.37;;;;;;;11.08;100.00;97421.25;5083114;28;20277;-59
2022/10/29 05:56:04;;;;;;;9.77;3.30;;;;;;;11.10;100.00;97427.22;5082910;28;20199;-61
2022/10/29 05:58:31;;;;;;;15.33;4.17;;;;;;;11.08;100.00;97432.69;5082623;28;20290;-61
2022/10/29 06:00:58;;;;;;;7.97;3.40;;;;;;;11.09;100.00;97433.53;5082712;28;21571;-60
2022/10/29 06:03:25;;;;;;;10.20;3.40;;;;;;;11.11;100.00;97426.28;5083014;28;20288;-60
2022/10/29 06:05:52;;;;;;;6.30;3.47;;;;;;;11.11;100.00;97434.22;5083039;28;20204;-60
2022/10/29 06:08:18;;;;;;;8.63;3.53;;;;;;;11.11;100.00;97427.13;5082896;28;20206;-61
2022/10/29 06:10:45;;;;;;;10.60;4.10;;;;;;;11.08;100.00;97431.84;5094956;28;20222;-61
2022/10/29 06:13:12;;;;;;;7.13;3.47;;;;;;;11.11;100.00;97436.88;5104779;28;20217;-60
2022/10/29 06:15:39;;;;;;;10.67;3.80;;;;;;;11.08;100.00;97435.31;5092425;28;20249;-61
2022/10/29 06:18:07;;;;;;;8.80;3.53;;;;;;;11.15;100.00;97430.34;5090744;28;20232;-61
2022/10/29 06:20:34;;;;;;;7.47;3.83;;;;;;;11.19;100.00;97439.72;5093589;28;20271;-61
2022/10/29 06:23:00;;;;;;;7.90;3.87;;;;;;;11.22;100.00;97434.16;5104219;28;20194;-61
2022/10/29 06:25:27;;;;;;;8.30;3.90;;;;;;;11.21;100.00;97432.47;5085771;28;20306;-61
2022/10/29 06:27:59;;;;;;;8.63;3.47;;;;;;;11.21;100.00;97435.13;5082392;28;20277;-60
2022/10/29 06:30:26;;;;;;;7.30;3.50;;;;;;;11.25;100.00;97433.91;5082446;28;20198;-60
2022/10/29 06:32:53;;;;;;;5.53;3.67;;;;;;;11.28;100.00;97433.66;5086345;28;20222;-60
2022/10/29 06:35:21;;;;;;;9.10;4.27;;;;;;;11.30;100.00;97437.03;5097972;28;20217;-60
2022/10/29 06:37:47;;;;;;;6.50;3.73;;;;;;;11.34;100.00;97435.78;5082937;28;20297;-60
2022/10/29 06:40:14;;;;;;;8.00;3.83;;;;;;;11.34;100.00;97433.97;5081762;28;20216;-60
2022/10/29 06:42:41;;;;;;;5.63;3.40;;;;;;;11.34;100.00;97438.44;5081712;28;20327;-61
2022/10/29 06:45:08;;;;;;;8.67;3.57;;;;;;;11.39;100.00;97433.59;5081776;28;20665;-61
2022/10/29 06:47:38;;;;;;;6.70;3.50;;;;;;;11.43;100.00;97433.22;5081697;28;20291;-61
2022/10/29 06:50:06;;;;;;;8.43;3.50;;;;;;;11.48;100.00;97424.88;5081181;28;20285;-61
2022/10/29 06:52:34;;;;;;;9.23;3.73;;;;;;;11.54;100.00;97434.97;5081348;28;20650;-59
2022/10/29 06:55:01;;;;;;;11.30;4.17;;;;;;;11.60;100.00;97428.28;5081775;28;20211;-60
2022/10/29 06:57:28;;;;;;;10.67;4.20;;;;;;;11.62;100.00;97437.78;5082914;28;20504;-60
2022/10/29 06:59:54;;;;;;;8.83;3.53;;;;;;;11.63;100.00;97428.88;5082517;28;20322;-60
2022/10/29 07:02:22;;;;;;;5.30;3.60;;;;;;;11.68;100.00;97431.97;5085482;28;20203;-60
2022/10/29 07:04:49;;;;;;;6.87;3.70;;;;;;;11.75;100.00;97438.47;5083942;28;20198;-61
2022/10/29 07:07:16;;;;;;;8.43;3.60;;;;;;;11.81;100.00;97445.03;5082010;28;20214;-59
2022/10/29 07:09:43;;;;;;;8.60;3.60;;;;;;;11.88;100.00;97443.56;5081613;28;20630;-60
2022/10/29 07:12:10;;;;;;;6.27;3.60;;;;;;;11.94;100.00;97453.63;5082437;28;20618;-59
2022/10/29 07:14:37;;;;;;;8.37;3.63;;;;;;;11.98;100.00;97452.38;5083687;28;20210;-61
2022/10/29 07:17:03;;;;;;;8.57;3.87;;;;;;;12.04;100.00;97459.84;5089872;28;20280;-60
2022/10/29 07:19:30;;;;;;;9.80;4.33;;;;;;;12.07;100.00;97456.91;5092738;28;20202;-61
2022/10/29 07:21:57;;;;;;;7.27;4.23;;;;;;;12.14;100.00;97459.88;5100281;28;20210;-60
2022/10/29 07:24:23;;;;;;;8.10;3.87;;;;;;;12.23;100.00;97459.06;5083295;28;20198;-60
2022/10/29 07:26:51;;;;;;;9.03;4.30;;;;;;;12.33;100.00;97459.94;5081392;28;20601;-60
2022/10/29 07:29:18;;;;;;;4.77;3.93;;;;;;;12.40;100.00;97463.72;5081269;28;20269;-59
2022/10/29 07:31:44;;;;;;;7.07;4.10;;;;;;;12.48;100.00;97458.59;5083162;28;20233;-60
2022/10/29 07:34:11;;;;;;;8.90;4.50;;;;;;;12.55;100.00;97454.44;5085081;28;20225;-60
2022/10/29 07:36:38;;;;;;;9.37;4.50;;;;;;;12.64;100.00;97458.94;5083881;28;20252;-60
2022/10/29 07:39:06;;;;;;;12.90;5.17;;;;;;;12.72;100.00;97456.44;5083325;28;20238;-59
2022/10/29 07:41:32;;;;;;;6.90;4.23;;;;;;;12.79;100.00;97452.25;5083097;28;20241;-59
2022/10/29 07:44:00;;;;;;;9.50;5.10;;;;;;;12.90;100.00;97449.47;5085474;28;20193;-60
2022/10/29 07:46:27;;;;;;;7.83;4.07;;;;;;;13.00;100.00;97448.66;5092124;28;20198;-60
2022/10/29 07:48:54;;;;;;;9.63;5.07;;;;;;;13.07;100.00;97457.75;5094563;28;20198;-60
2022/10/29 07:51:20;;;;;;;8.57;5.50;;;;;;;13.16;100.00;97448.97;5097044;28;20321;-61
2022/10/29 07:53:47;;;;;;;6.50;4.00;;;;;;;13.26;100.00;97453.31;5095804;28;20212;-60
2022/10/29 07:56:13;;;;;;;7.30;4.00;;;;;;;13.32;100.00;97451.94;5095351;28;20658;-59
2022/10/29 07:58:40;;;;;;;8.83;4.50;;;;;;;13.40;100.00;97454.69;5093368;28;20237;-60
2022/10/29 08:01:08;;;;;;;11.67;5.20;;;;;;;13.50;100.00;97458.19;5092025;28;20214;-60
2022/10/29 08:03:35;;;;;;;7.30;4.90;;;;;;;13.55;100.00;97455.13;5087714;28;20201;-60
2022/10/29 08:06:01;;;;;;;9.10;4.70;;;;;;;13.59;100.00;97460.00;5082690;28;20206;-61
2022/10/29 08:08:28;;;;;;;10.23;4.53;;;;;;;13.68;100.00;97459.16;5080904;28;20300;-60
2022/10/29 08:10:59;;;;;;;7.17;4.97;;;;;;;13.74;100.00;97463.91;5081339;28;20232;-60
2022/10/29 08:13:26;;;;;;;10.50;5.77;;;;;;;13.81;100.00;97457.03;5081146;28;20283;-60
2022/10/29 08:15:52;;;;;;;10.17;5.10;;;;;;;13.89;100.00;97459.81;5081225;28;20194;-61
2022/10/29 08:18:20;;;;;;;7.73;4.33;;;;;;;13.98;100.00;97457.28;5080496;28;20205;-60
2022/10/29 08:20:47;;;;;;;11.57;5.07;;;;;;;14.03;100.00;97453.19;5080458;28;20250;-60
2022/10/29 08:23:14;;;;;;;5.40;4.47;;;;;;;14.11;100.00;97449.81;5080832;28;20293;-60
2022/10/29 08:25:41;;;;;;;10.87;5.40;;;;;;;14.17;100.00;97452.72;5080171;28;20317;-60
2022/10/29 08:28:09;;;;;;;8.00;4.83;;;;;;;14.22;100.00;97446.97;5081126;28;20696;-60
2022/10/29 08:30:36;;;;;;;9.23;4.93;;;;;;;14.28;100.00;97447.22;5081206;28;20238;-60
2022/10/29 08:33:03;;;;;;;13.60;4.90;;;;;;;14.35;100.00;97447.50;5082465;28;20240;-60
2022/10/29 08:35:31;;;;;;;6.87;4.77;;;;;;;14.42;100.00;97456.56;5085010;28;20231;-61
2022/10/29 08:37:58;;;;;;;8.40;5.00;;;;;;;14.51;100.00;97450.38;5086495;28;20285;-60
2022/10/29 08:40:30;;;;;;;5.60;4.43;;;;;;;14.62;100.00;97452.84;5087231;28;20317;-60
2022/10/29 08:43:28;;;;;;;12.80;4.97;;;;;;;14.71;100.00;97443.97;5087986;28;20293;-61
2022/10/29 08:45:55;;;;;;;10.23;5.47;;;;;;;14.78;100.00;97447.69;5087919;28;20324;-60
2022/10/29 08:48:28;;;;;;;9.17;5.00;;;;;;;14.85;100.00;97447.94;5089006;28;20265;-60
2022/10/29 08:51:00;;;;;;;10.47;5.40;;;;;;;14.91;100.00;97444.69;5091998;28;20264;-60
2022/10/29 08:53:34;;;;;;;8.00;5.23;;;;;;;15.03;100.00;97437.31;5091733;28;20262;-60
2022/10/29 08:56:01;;;;;;;5.68;5.13;;;;;;;15.17;100.00;97439.44;5091002;28;20289;-61
2022/10/29 08:58:32;;;;;;;9.48;5.32;;;;;;;15.33;100.00;97442.28;5086754;28;20217;-60
2022/10/29 09:00:59;;;;;;;8.85;5.15;;;;;;;15.44;100.00;97439.38;5086311;28;20206;-61
2022/10/29 09:03:28;;;;;;;6.63;4.68;;;;;;;15.59;100.00;97439.69;5086255;28;20225;-61
2022/10/29 09:06:03;;;;;;;10.50;5.32;;;;;;;15.72;100.00;97438.28;5085515;28;20204;-60
2022/10/29 09:08:37;;;;;;;9.77;5.45;;;;;;;15.85;100.00;97443.22;5084635;28;20296;-59
2022/10/29 09:11:11;;;;;;;9.05;5.35;;;;;;;16.01;100.00;97442.50;5085239;28;20196;-60
2022/10/29 09:13:45;;;;;;;7.90;5.35;;;;;;;16.18;100.00;97438.91;5085734;28;20229;-60
2022/10/29 09:16:25;;;;;;;11.82;5.80;;;;;;;16.34;100.00;97439.84;5083952;28;20328;-60
2022/10/29 09:19:09;;;;;;;12.52;5.80;;;;;;;16.51;100.00;97432.72;5083707;28;20232;-60
2022/10/29 09:21:42;;;;;;;12.13;5.57;;;;;;;16.70;100.00;97437.00;5083811;28;20784;-60
2022/10/29 09:24:13;;;;;;;10.23;5.40;;;;;;;16.89;100.00;97437.59;5083710;28;20298;-60
2022/10/29 09:26:47;;;;;;;11.98;5.53;;;;;;;17.13;100.00;97433.28;5083707;28;20251;-60
2022/10/29 09:29:26;;;;;;;11.95;4.85;;;;;;;17.22;98.08;97430.44;5084200;28;20281;-59
2022/10/29 09:31:56;;;;;;;11.70;5.10;;;;;;;17.43;98.13;97421.94;5083617;28;20233;-60
2022/10/29 09:34:29;;;;;;;8.52;4.55;;;;;;;17.61;97.99;97428.00;5083706;28;20281;-60
2022/10/29 09:36:58;;;;;;;9.23;5.15;;;;;;;17.70;94.13;97424.34;5082969;28;20649;-60
2022/10/29 09:39:29;;;;;;;9.90;5.10;;;;;;;17.85;92.79;97427.97;5083357;28;20217;-59
2022/10/29 09:41:57;;;;;;;10.45;4.95;;;;;;;17.99;91.64;97420.28;5083010;28;20206;-60
2022/10/29 09:44:37;;;;;;;10.02;5.05;;;;;;;18.17;90.47;97420.91;5083788;28;20214;-60
2022/10/29 09:47:10;;;;;;;13.32;4.82;;;;;;;18.26;89.27;97414.50;5083330;28;20329;-61
2022/10/29 09:49:49;;;;;;;11.32;4.78;;;;;;;18.48;90.22;97410.25;5083594;28;20273;-60
2022/10/29 09:52:19;;;;;;;8.50;4.75;;;;;;;18.59;87.62;97415.28;5033162;28;20290;-60
2022/10/29 09:54:46;;;;;;;9.50;5.10;;;;;;;18.76;87.33;97416.84;5033819;28;20227;-60
2022/10/29 09:57:18;;;;;;;11.25;5.13;;;;;;;18.94;87.65;97413.91;5052057;28;20224;-60
2022/10/29 09:59:47;;;;;;;8.98;5.15;;;;;;;19.14;86.38;97415.13;5056996;28;20200;-60
2022/10/29 10:02:28;;;;;;;10.23;4.80;;;;;;;19.17;84.42;97412.09;5036663;28;20238;-61
2022/10/29 10:04:57;;;;;;;9.23;5.20;;;;;;;19.37;83.39;97406.09;5051621;28;20204;-61
2022/10/29 10:07:25;;;;;;;8.63;4.75;;;;;;;19.52;83.22;97400.78;5056466;28;20186;-61
2022/10/29 10:09:56;;;;;;;10.30;4.90;;;;;;;19.67;81.93;97412.41;5050832;28;20533;-59
2022/10/29 10:12:25;;;;;;;12.40;5.00;;;;;;;19.80;80.64;97404.56;5033002;28;21478;-60
2022/10/29 10:15:07;;;;;;;13.13;5.32;;;;;;;19.96;80.50;97406.25;5033056;28;20290;-60
2022/10/29 10:17:59;;;;;;;8.95;4.30;;;;;;;20.19;80.31;97392.78;5032968;28;20305;-60
2022/10/29 10:20:35;;;;;;;9.75;5.30;;;;;;;20.33;78.68;97397.34;5033354;28;20211;-60
2022/10/29 10:23:19;;;;;;;10.63;4.90;;;;;;;20.24;77.04;97393.88;5032790;28;20227;-60
2022/10/29 10:25:47;;;;;;;6.85;4.45;;;;;;;20.45;79.72;97406.59;5032307;28;20283;-60
2022/10/29 10:28:17;;;;;;;18.77;13.32;;;;;;;20.60;80.30;97393.97;5032354;28;20212;-61
2022/10/29 10:30:45;;;;;;;14.18;5.70;;;;;;;20.60;79.42;97399.34;5032372;28;20210;-59
2022/10/29 10:33:22;;;;;;;12.57;6.03;;;;;;;20.71;80.08;97396.19;5031977;28;20232;-60
2022/10/29 10:35:48;;;;;;;11.63;4.75;;;;;;;20.66;78.54;97393.22;5032046;28;20747;-60
2022/10/29 10:38:16;;;;;;;11.02;5.18;;;;;;;20.63;77.57;97385.53;5031874;28;20295;-60
2022/10/29 10:40:43;;;;;;;9.07;5.07;;;;;;;20.57;76.97;97380.94;5032666;28;20259;-60
2022/10/29 10:43:20;;;;;;;9.23;5.05;;;;;;;20.71;77.13;97385.44;5032584;28;20573;-60
2022/10/29 10:45:52;;;;;;;6.35;4.63;;;;;;;20.76;78.06;97383.00;5032769;28;20595;-60
2022/10/29 10:48:19;;;;;;;9.43;4.57;;;;;;;20.84;78.45;97380.22;5032146;28;20227;-59
2022/10/29 10:50:45;;;;;;;9.13;4.35;;;;;;;20.91;77.05;97380.28;5053455;28;20320;-60
2022/10/29 10:53:19;;;;;;;9.70;4.68;;;;;;;20.92;75.92;97370.38;5081763;28;20278;-60
2022/10/29 10:55:48;;;;;;;8.55;4.60;;;;;;;20.91;76.86;97364.16;5081843;28;20272;-59
2022/10/29 10:58:17;;;;;;;7.78;5.13;;;;;;;21.00;79.19;97357.66;5081270;28;20298;-60
2022/10/29 11:00:47;;;;;;;8.05;4.78;;;;;;;21.04;78.06;97352.72;5081708;28;20546;-61
2022/10/29 11:03:18;;;;;;;9.55;4.82;;;;;;;21.08;77.89;97354.00;5081779;28;20207;-61
2022/10/29 11:05:49;;;;;;;9.85;4.50;;;;;;;21.00;75.93;97346.88;5081714;28;20194;-59
2022/10/29 11:08:21;;;;;;;12.02;4.68;;;;;;;20.98;76.45;97348.09;5082077;28;21137;-61
2022/10/29 11:10:51;;;;;;;8.48;4.68;;;;;;;21.06;76.89;97342.59;5081975;28;20277;-61
2022/10/29 11:13:20;;;;;;;10.57;4.78;;;;;;;21.06;76.43;97339.91;5081170;28;20650;-59
2022/10/29 11:15:52;;;;;;;10.52;4.63;;;;;;;21.16;77.36;97330.53;5083802;28;20238;-59
2022/10/29 11:18:22;;;;;;;12.55;5.32;;;;;;;21.18;77.23;97327.66;5081651;28;20205;-60
2022/10/29 11:21:04;;;;;;;11.35;5.40;;;;;;;21.25;77.42;97325.84;5081741;28;20281;-60
2022/10/29 11:23:41;;;;;;;11.43;5.00;;;;;;;21.21;77.65;97320.03;5081467;28;20199;-60
2022/10/29 11:26:13;;;;;;;9.00;5.00;;;;;;;21.25;76.89;97320.47;5081692;28;20222;-60
2022/10/29 11:28:41;;;;;;;11.40;4.93;;;;;;;21.24;77.01;97324.19;5081676;28;20271;-60
2022/10/29 11:31:14;;;;;;;7.70;5.22;;;;;;;21.31;77.60;97317.00;5081226;28;20498;-61
2022/10/29 11:33:47;;;;;;;6.82;4.30;;;;;;;21.34;78.73;97311.22;5080980;28;20204;-60